createdAt,value
2022-10-21T00:01:56.599Z,3.85
2022-10-21T00:04:58.478Z,5.55
2022-10-21T00:08:00.408Z,4.45
2022-10-21T00:11:05.956Z,7.00
2022-10-21T00:14:08.266Z,8.30
2022-10-21T00:17:09.955Z,4.90
2022-10-21T00:20:13.293Z,4.25
2022-10-21T00:26:17.863Z,9.27
2022-10-21T00:29:19.743Z,6.32
2022-10-21T00:32:21.508Z,2.45
2022-10-21T00:35:23.383Z,5.97
2022-10-21T00:38:25.710Z,4.55
2022-10-21T00:41:28.223Z,2.40
2022-10-21T00:44:31.405Z,2.60
2022-10-21T00:48:01.537Z,1.77
2022-10-21T00:51:08.215Z,3.47
2022-10-21T00:54:10.580Z,3.97
2022-10-21T00:57:12.728Z,2.33
2022-10-21T01:00:14.928Z,4.57
2022-10-21T01:03:16.847Z,6.43
2022-10-21T01:06:21.823Z,1.85
2022-10-21T01:09:25.989Z,3.28
2022-10-21T01:13:00.698Z,3.65
2022-10-21T01:16:17.759Z,2.20
2022-10-21T01:19:39.719Z,1.40
2022-10-21T01:22:51.613Z,2.22
2022-10-21T01:26:15.073Z,5.15
2022-10-21T01:29:38.187Z,3.50
2022-10-21T01:33:18.138Z,6.20
2022-10-21T01:36:50.367Z,4.28
2022-10-21T01:40:04.722Z,2.88
2022-10-21T01:43:48.065Z,1.67
2022-10-21T01:47:00.403Z,4.38
2022-10-21T01:50:30.300Z,6.07
2022-10-21T01:53:40.635Z,2.13
2022-10-21T01:56:44.698Z,3.15
2022-10-21T01:59:47.890Z,2.53
2022-10-21T02:02:50.192Z,7.38
2022-10-21T02:05:51.997Z,6.72
2022-10-21T02:08:54.019Z,1.10
2022-10-21T02:12:00.530Z,4.68
2022-10-21T02:15:08.420Z,4.07
2022-10-21T02:18:20.016Z,1.55
2022-10-21T02:21:24.427Z,2.55
2022-10-21T02:24:49.519Z,3.70
2022-10-21T02:27:52.384Z,4.03
2022-10-21T02:31:17.795Z,2.78
2022-10-21T02:34:44.620Z,3.97
2022-10-21T02:37:55.795Z,7.40
2022-10-21T02:41:01.546Z,3.70
2022-10-21T02:44:04.700Z,3.47
2022-10-21T02:47:06.662Z,2.38
2022-10-21T02:50:08.682Z,2.67
2022-10-21T02:53:12.710Z,3.72
2022-10-21T02:56:14.684Z,3.03
2022-10-21T02:59:16.373Z,3.35
2022-10-21T03:02:18.115Z,4.57
2022-10-21T03:05:19.964Z,5.43
2022-10-21T03:08:22.044Z,5.60
2022-10-21T03:11:23.880Z,4.38
2022-10-21T03:14:25.867Z,2.55
2022-10-21T03:17:27.567Z,7.10
2022-10-21T03:20:29.301Z,3.78
2022-10-21T03:23:31.148Z,4.57
2022-10-21T03:26:32.843Z,4.05
2022-10-21T03:29:34.504Z,4.43
2022-10-21T03:32:36.769Z,4.38
2022-10-21T03:35:38.773Z,4.13
2022-10-21T03:38:40.475Z,5.68
2022-10-21T03:41:42.207Z,2.50
2022-10-21T03:44:43.907Z,2.75
2022-10-21T03:47:47.175Z,6.60
2022-10-21T03:50:48.898Z,6.07
2022-10-21T03:53:50.597Z,4.38
2022-10-21T03:56:52.397Z,4.80
2022-10-21T03:59:54.049Z,3.55
2022-10-21T04:02:55.893Z,3.05
2022-10-21T04:05:57.944Z,3.50
2022-10-21T04:08:59.831Z,2.67
2022-10-21T04:12:01.843Z,8.15
2022-10-21T04:15:06.340Z,5.07
2022-10-21T04:18:08.183Z,9.32
2022-10-21T04:21:10.308Z,4.43
2022-10-21T04:24:12.579Z,5.30
2022-10-21T04:27:14.566Z,2.75
2022-10-21T04:30:16.303Z,4.03
2022-10-21T04:33:18.112Z,4.38
2022-10-21T04:36:19.891Z,6.68
2022-10-21T04:39:21.899Z,6.80
2022-10-21T04:42:24.081Z,9.30
2022-10-21T04:45:26.269Z,4.30
2022-10-21T04:48:27.976Z,5.45
2022-10-21T04:51:29.727Z,4.85
2022-10-21T04:54:31.484Z,3.15
2022-10-21T04:57:33.281Z,4.93
2022-10-21T05:00:35.394Z,6.40
2022-10-21T05:03:37.350Z,3.33
2022-10-21T05:06:39.329Z,6.20
2022-10-21T05:09:41.066Z,5.10
2022-10-21T05:12:43.288Z,2.75
2022-10-21T05:15:45.601Z,11.00
2022-10-21T05:18:47.706Z,7.25
2022-10-21T05:21:49.583Z,6.57
2022-10-21T05:24:51.319Z,5.90
2022-10-21T05:27:52.973Z,6.05
2022-10-21T05:30:54.813Z,6.00
2022-10-21T05:33:57.394Z,7.05
2022-10-21T05:36:59.298Z,5.73
2022-10-21T05:40:01.062Z,4.35
2022-10-21T05:43:03.094Z,5.20
2022-10-21T05:46:05.541Z,9.35
2022-10-21T05:49:07.666Z,2.85
2022-10-21T05:52:09.735Z,5.97
2022-10-21T05:55:11.735Z,4.88
2022-10-21T05:58:13.519Z,7.03
2022-10-21T06:01:15.604Z,4.53
2022-10-21T06:04:17.641Z,4.38
2022-10-21T06:07:19.699Z,8.60
2022-10-21T06:10:25.486Z,6.05
2022-10-21T06:13:31.035Z,5.97
2022-10-21T06:16:35.329Z,6.15
2022-10-21T06:19:37.163Z,9.65
2022-10-21T06:22:38.908Z,6.07
2022-10-21T06:25:40.808Z,7.07
2022-10-21T06:28:44.414Z,7.53
2022-10-21T06:31:46.435Z,6.82
2022-10-21T06:34:48.281Z,9.80
2022-10-21T06:37:50.271Z,6.40
2022-10-21T06:40:52.949Z,6.50
2022-10-21T06:43:54.770Z,9.40
2022-10-21T06:46:56.560Z,8.27
2022-10-21T06:50:02.962Z,7.30
2022-10-21T06:53:05.204Z,9.05
2022-10-21T06:56:13.537Z,9.30
2022-10-21T06:59:15.350Z,7.93
2022-10-21T07:02:17.056Z,7.53
2022-10-21T07:05:19.029Z,9.23
2022-10-21T07:08:22.579Z,5.75
2022-10-21T07:11:36.774Z,4.55
2022-10-21T07:14:39.528Z,8.82
2022-10-21T07:17:41.677Z,5.90
2022-10-21T07:20:43.896Z,5.18
2022-10-21T07:23:47.791Z,6.05
2022-10-21T07:26:49.808Z,8.75
2022-10-21T07:29:52.043Z,7.38
2022-10-21T07:32:53.884Z,8.70
2022-10-21T07:36:15.151Z,10.25
2022-10-21T07:39:17.922Z,8.00
2022-10-21T07:42:20.216Z,7.97
2022-10-21T07:45:21.966Z,9.80
2022-10-21T07:48:23.901Z,9.38
2022-10-21T07:51:30.306Z,6.70
2022-10-21T07:54:33.101Z,7.32
2022-10-21T07:57:34.776Z,8.27
2022-10-21T08:00:36.856Z,9.65
2022-10-21T08:03:39.370Z,7.07
2022-10-21T08:06:41.831Z,5.25
2022-10-21T08:09:43.813Z,4.15
2022-10-21T08:12:45.757Z,8.25
2022-10-21T08:15:50.535Z,5.75
2022-10-21T08:18:52.960Z,5.60
2022-10-21T08:21:56.163Z,6.80
2022-10-21T08:24:57.854Z,6.00
2022-10-21T08:27:59.742Z,7.05
2022-10-21T08:31:11.538Z,4.95
2022-10-21T08:34:13.263Z,5.80
2022-10-21T08:37:15.261Z,10.35
2022-10-21T08:40:18.392Z,6.03
2022-10-21T08:43:39.659Z,7.32
2022-10-21T08:46:53.696Z,5.85
2022-10-21T08:50:14.670Z,4.50
2022-10-21T08:53:47.328Z,5.15
2022-10-21T08:56:54.467Z,8.63
2022-10-21T08:59:56.523Z,5.30
2022-10-21T09:03:20.328Z,8.95
2022-10-21T09:09:40.844Z,9.52
2022-10-21T09:13:04.512Z,6.60
2022-10-21T09:16:21.671Z,7.13
2022-10-21T09:19:45.949Z,5.35
2022-10-21T09:22:56.883Z,4.72
2022-10-21T09:26:07.722Z,4.80
2022-10-21T09:29:34.967Z,4.25
2022-10-21T09:32:41.770Z,5.65
2022-10-21T09:35:48.927Z,10.25
2022-10-21T09:39:18.636Z,5.20
2022-10-21T09:42:42.325Z,2.47
2022-10-21T09:45:45.241Z,3.67
2022-10-21T09:52:13.426Z,5.47
2022-10-21T09:55:16.377Z,4.43
2022-10-21T09:59:07.645Z,1.55
2022-10-21T10:02:15.866Z,1.08
2022-10-21T10:05:49.240Z,3.40
2022-10-21T10:08:51.265Z,1.33
2022-10-21T10:12:03.755Z,2.92
2022-10-21T10:15:33.116Z,2.65
2022-10-21T10:18:35.191Z,1.85
2022-10-21T10:21:37.164Z,1.80
2022-10-21T10:24:42.816Z,2.60
2022-10-21T10:28:10.588Z,6.40
2022-10-21T10:31:12.440Z,3.60
2022-10-21T10:34:33.775Z,2.25
2022-10-21T10:37:37.591Z,1.85
2022-10-21T10:40:42.209Z,1.67
2022-10-21T10:43:53.507Z,0.80
2022-10-21T10:47:01.026Z,0.93
2022-10-21T10:50:03.448Z,2.05
2022-10-21T10:53:21.730Z,1.35
2022-10-21T10:56:35.884Z,3.83
2022-10-21T10:59:45.157Z,3.30
2022-10-21T11:02:49.793Z,1.90
2022-10-21T11:05:54.018Z,1.60
2022-10-21T11:08:58.722Z,1.30
2022-10-21T11:12:03.299Z,1.90
2022-10-21T11:15:14.231Z,2.90
2022-10-21T11:18:34.372Z,3.83
2022-10-21T11:22:00.684Z,1.83
2022-10-21T11:25:13.770Z,0.95
2022-10-21T11:28:37.931Z,2.13
2022-10-21T11:32:11.255Z,2.28
2022-10-21T11:38:40.554Z,1.05
2022-10-21T11:42:00.471Z,0.77
2022-10-21T11:45:24.188Z,2.65
2022-10-21T11:48:49.986Z,0.65
2022-10-21T11:52:17.674Z,1.45
2022-10-21T11:55:32.627Z,2.95
2022-10-21T11:58:54.133Z,0.98
2022-10-21T12:02:04.440Z,3.83
2022-10-21T12:05:08.955Z,1.98
2022-10-21T12:08:27.533Z,0.93
2022-10-21T12:11:38.046Z,0.90
2022-10-21T12:14:56.341Z,2.95
2022-10-21T12:17:58.618Z,1.10
2022-10-21T12:21:00.960Z,3.75
2022-10-21T12:24:24.689Z,4.88
2022-10-21T12:27:42.090Z,4.13
2022-10-21T12:30:56.471Z,2.20
2022-10-21T12:33:58.751Z,2.28
2022-10-21T12:37:02.130Z,2.55
2022-10-21T12:43:28.746Z,2.42
2022-10-21T12:46:41.265Z,2.78
2022-10-21T12:49:43.850Z,2.17
2022-10-21T12:52:47.353Z,2.13
2022-10-21T12:55:52.884Z,2.97
2022-10-21T12:59:04.489Z,1.52
2022-10-21T13:02:06.765Z,1.92
2022-10-21T13:05:08.452Z,4.70
2022-10-21T13:08:28.288Z,1.15
2022-10-21T13:11:37.312Z,2.33
2022-10-21T13:14:49.497Z,4.55
2022-10-21T13:18:00.143Z,1.27
2022-10-21T13:21:02.625Z,3.35
2022-10-21T13:24:15.504Z,1.92
2022-10-21T13:30:38.023Z,1.92
2022-10-21T13:33:53.557Z,2.95
2022-10-21T13:36:58.754Z,2.10
2022-10-21T13:40:14.577Z,2.72
2022-10-21T13:43:28.661Z,1.08
2022-10-21T13:46:40.683Z,6.20
2022-10-21T13:49:52.531Z,1.83
2022-10-21T13:52:55.410Z,4.15
2022-10-21T13:56:08.767Z,1.98
2022-10-21T13:59:36.994Z,4.72
2022-10-21T14:03:05.501Z,2.00
2022-10-21T14:06:09.728Z,0.85
2022-10-21T14:09:23.704Z,0.82
2022-10-21T14:12:41.721Z,2.80
2022-10-21T14:15:45.374Z,3.15
2022-10-21T14:21:53.835Z,2.13
2022-10-21T14:25:02.134Z,2.85
2022-10-21T14:28:05.076Z,1.10
2022-10-21T14:31:11.845Z,2.47
2022-10-21T14:34:29.231Z,1.63
2022-10-21T14:37:37.046Z,1.45
2022-10-21T14:40:41.638Z,2.00
2022-10-21T14:43:45.361Z,4.68
2022-10-21T14:46:49.833Z,3.28
2022-10-21T14:49:54.194Z,2.40
2022-10-21T14:52:56.003Z,2.72
2022-10-21T14:56:00.534Z,4.50
2022-10-21T14:59:19.524Z,0.75
2022-10-21T15:02:26.560Z,2.42
2022-10-21T15:05:34.271Z,2.50
2022-10-21T15:08:36.487Z,1.30
2022-10-21T15:11:46.933Z,1.02
2022-10-21T15:18:20.358Z,2.58
2022-10-21T15:21:49.638Z,1.25
2022-10-21T15:24:53.070Z,1.27
2022-10-21T15:30:59.708Z,1.27
2022-10-21T15:34:08.994Z,1.80
2022-10-21T15:37:11.638Z,7.32
2022-10-21T15:40:13.919Z,5.30
2022-10-21T15:43:15.883Z,2.53
2022-10-21T15:46:18.097Z,0.98
2022-10-21T15:49:22.206Z,4.65
2022-10-21T15:52:24.612Z,2.53
2022-10-21T15:55:26.540Z,1.58
2022-10-21T15:58:28.326Z,2.40
2022-10-21T16:01:30.137Z,3.47
2022-10-21T16:04:32.273Z,1.98
2022-10-21T16:07:34.257Z,4.38
2022-10-21T16:10:36.974Z,2.00
2022-10-21T16:13:38.643Z,5.07
2022-10-21T16:16:49.311Z,2.65
2022-10-21T16:19:51.501Z,4.70
2022-10-21T16:22:53.657Z,6.07
2022-10-21T16:25:56.837Z,5.20
2022-10-21T16:28:59.544Z,2.95
2022-10-21T16:32:01.596Z,2.95
2022-10-21T16:35:03.524Z,3.75
2022-10-21T16:38:06.360Z,1.63
2022-10-21T16:41:13.966Z,2.38
2022-10-21T16:44:15.797Z,1.88
2022-10-21T16:47:20.640Z,4.18
2022-10-21T16:50:24.284Z,4.40
2022-10-21T16:53:29.150Z,1.50
2022-10-21T16:56:31.779Z,4.60
2022-10-21T16:59:33.635Z,1.37
2022-10-21T17:02:40.281Z,2.85
2022-10-21T17:05:42.474Z,1.20
2022-10-21T17:08:44.484Z,1.33
2022-10-21T17:11:47.183Z,1.88
2022-10-21T17:14:49.147Z,1.30
2022-10-21T17:17:51.036Z,2.13
2022-10-21T17:20:52.923Z,2.53
2022-10-21T17:23:56.372Z,2.92
2022-10-21T17:29:59.731Z,1.63
2022-10-21T17:33:01.575Z,2.15
2022-10-21T17:36:04.043Z,4.35
2022-10-21T17:39:06.479Z,1.85
2022-10-21T17:42:09.473Z,2.10
2022-10-21T17:45:12.797Z,1.48
2022-10-21T17:48:14.534Z,3.45
2022-10-21T17:51:16.301Z,1.10
2022-10-21T17:57:38.401Z,5.20
2022-10-21T18:00:43.752Z,2.17
2022-10-21T18:04:03.138Z,3.88
2022-10-21T18:07:08.537Z,3.55
2022-10-21T18:10:11.781Z,1.52
2022-10-21T18:13:13.722Z,1.80
2022-10-21T18:16:21.662Z,7.30
2022-10-21T18:19:23.339Z,3.15
2022-10-21T18:22:25.053Z,3.10
2022-10-21T18:25:26.801Z,2.17
2022-10-21T18:28:29.623Z,2.08
2022-10-21T18:31:35.071Z,2.85
2022-10-21T18:34:36.905Z,4.57
2022-10-21T18:37:38.840Z,2.33
2022-10-21T18:40:47.061Z,3.85
2022-10-21T18:44:08.100Z,2.08
2022-10-21T18:47:11.152Z,2.55
2022-10-21T18:50:14.202Z,3.88
2022-10-21T18:53:16.035Z,3.03
2022-10-21T18:56:18.986Z,1.60
2022-10-21T18:59:21.715Z,4.53
2022-10-21T19:02:24.185Z,3.75
2022-10-21T19:05:26.399Z,3.33
2022-10-21T19:08:28.312Z,4.40
2022-10-21T19:11:30.470Z,3.10
2022-10-21T19:14:33.944Z,4.35
2022-10-21T19:20:37.343Z,7.22
2022-10-21T19:23:39.496Z,2.75
2022-10-21T19:26:44.146Z,6.20
2022-10-21T19:29:45.875Z,5.78
2022-10-21T19:32:47.587Z,3.10
2022-10-21T19:35:49.521Z,4.65
2022-10-21T19:38:51.316Z,5.32
2022-10-21T19:41:53.269Z,4.00
2022-10-21T19:44:55.075Z,4.72
2022-10-21T19:47:56.748Z,2.90
2022-10-21T19:50:59.684Z,4.70
2022-10-21T19:54:04.945Z,5.63
2022-10-21T19:57:07.314Z,2.72
2022-10-21T20:00:10.457Z,3.83
2022-10-21T20:03:12.333Z,4.85
2022-10-21T20:06:16.801Z,5.22
2022-10-21T20:09:18.618Z,3.80
2022-10-21T20:12:20.456Z,4.65
2022-10-21T20:15:22.377Z,4.53
2022-10-21T20:18:27.264Z,6.32
2022-10-21T20:21:31.644Z,7.28
2022-10-21T20:24:33.512Z,5.18
2022-10-21T20:27:35.455Z,5.05
2022-10-21T20:30:46.277Z,6.78
2022-10-21T20:33:50.814Z,8.07
2022-10-21T20:36:52.781Z,10.45
2022-10-21T20:39:54.544Z,12.60
2022-10-21T20:42:56.411Z,16.08
2022-10-21T20:46:06.322Z,18.60
2022-10-21T20:49:09.366Z,17.25
2022-10-21T20:52:11.056Z,14.77
2022-10-21T20:55:12.981Z,14.65
2022-10-21T20:58:15.006Z,11.95
2022-10-21T21:01:20.171Z,12.45
2022-10-21T21:04:23.719Z,11.43
2022-10-21T21:10:27.389Z,5.90
2022-10-21T21:13:29.238Z,10.10
2022-10-21T21:16:31.281Z,6.78
2022-10-21T21:19:33.420Z,10.30
2022-10-21T21:22:37.045Z,8.95
2022-10-21T21:25:39.569Z,10.48
2022-10-21T21:28:41.346Z,6.22
2022-10-21T21:31:43.958Z,5.65
2022-10-21T21:34:49.003Z,4.70
2022-10-21T21:37:50.892Z,6.53
2022-10-21T21:40:53.399Z,5.22
2022-10-21T21:43:56.989Z,5.93
2022-10-21T21:46:58.750Z,4.10
2022-10-21T21:50:00.534Z,9.32
2022-10-21T21:53:02.230Z,5.95
2022-10-21T21:56:06.226Z,4.45
2022-10-21T21:59:07.951Z,5.40
2022-10-21T22:02:09.989Z,7.88
2022-10-21T22:05:11.689Z,5.32
2022-10-21T22:08:13.683Z,4.22
2022-10-21T22:11:18.903Z,8.63
2022-10-21T22:14:20.607Z,6.57
2022-10-21T22:17:25.543Z,5.03
2022-10-21T22:20:27.609Z,4.35
2022-10-21T22:23:29.532Z,5.28
2022-10-21T22:26:31.524Z,7.57
2022-10-21T22:29:33.363Z,5.95
2022-10-21T22:32:35.701Z,5.47
2022-10-21T22:35:39.327Z,5.75
2022-10-21T22:38:41.043Z,4.40
2022-10-21T22:41:43.014Z,6.35
2022-10-21T22:44:44.821Z,6.88
2022-10-21T22:47:46.670Z,5.85
2022-10-21T22:50:49.281Z,5.85
2022-10-21T22:53:55.307Z,10.70
2022-10-21T22:56:59.286Z,6.25
2022-10-21T23:00:01.076Z,7.70
2022-10-21T23:03:06.103Z,9.57
2022-10-21T23:06:10.679Z,6.00
2022-10-21T23:09:12.575Z,5.10
2022-10-21T23:12:14.366Z,7.03
2022-10-21T23:15:28.324Z,4.03
2022-10-21T23:18:30.012Z,7.57
2022-10-21T23:21:49.631Z,5.38
2022-10-21T23:25:00.862Z,4.82
2022-10-21T23:28:03.881Z,7.63
2022-10-21T23:31:13.217Z,6.00
2022-10-21T23:34:15.147Z,8.05
2022-10-21T23:37:17.095Z,8.20
2022-10-21T23:40:19.192Z,5.00
2022-10-21T23:43:21.067Z,6.50
2022-10-21T23:46:23.306Z,6.90
2022-10-21T23:49:25.178Z,6.18
2022-10-21T23:52:27.377Z,6.35
2022-10-21T23:55:41.445Z,8.25
2022-10-21T23:58:49.130Z,8.18
